Time;durP1;ratioP1;P1;durP2;ratioP2;P2;SDS_P1;SDS_P2;PMS_P1;PMS_P2;Temp;Humidity;BMP_temperature;BMP_pressure;BME280_temperature;BME280_humidity;BME280_pressure;Samples;Min_cycle;Max_cycle;Signal;HPM_P1;HPM_P2
2021/09/13 00:00:51;;;;;;;37.35;18.83;;;12.80;99.90;;;;;;5007922;28;20062;-67
2021/09/13 00:03:17;;;;;;;36.65;18.42;;;12.80;99.90;;;;;;5009137;28;20045;-67
2021/09/13 00:05:43;;;;;;;39.25;19.17;;;12.90;99.90;;;;;;4994316;28;20014;-68
2021/09/13 00:08:08;;;;;;;41.28;18.90;;;12.90;99.90;;;;;;5002695;28;20041;-68
2021/09/13 00:10:34;;;;;;;38.08;19.02;;;13.00;99.90;;;;;;5016170;28;20034;-67
2021/09/13 00:13:00;;;;;;;37.72;18.15;;;13.10;99.90;;;;;;5009139;28;20532;-67
2021/09/13 00:15:26;;;;;;;40.03;18.55;;;13.10;99.90;;;;;;5003268;28;20018;-67
2021/09/13 00:17:51;;;;;;;40.65;18.95;;;13.20;99.90;;;;;;5001107;28;20452;-68
2021/09/13 00:20:17;;;;;;;37.08;18.35;;;13.20;99.90;;;;;;5008646;28;20029;-68
2021/09/13 00:22:43;;;;;;;39.78;19.58;;;13.20;99.90;;;;;;5009158;28;20038;-67
2021/09/13 00:25:09;;;;;;;42.22;19.30;;;13.40;99.90;;;;;;5004790;28;20418;-67
2021/09/13 00:27:35;;;;;;;42.30;18.95;;;13.40;99.90;;;;;;5002139;28;20042;-67
2021/09/13 00:30:04;;;;;;;41.83;17.75;;;13.40;99.90;;;;;;5000872;28;20148;-67
2021/09/13 00:32:30;;;;;;;33.28;17.85;;;13.40;99.90;;;;;;5008763;28;20049;-67
2021/09/13 00:34:55;;;;;;;40.47;17.52;;;13.40;99.90;;;;;;5003576;28;20033;-68
2021/09/13 00:37:21;;;;;;;33.85;16.92;;;13.50;99.90;;;;;;4994682;28;20030;-68
2021/09/13 00:39:47;;;;;;;35.20;16.35;;;13.70;99.90;;;;;;5008619;28;20014;-67
2021/09/13 00:42:12;;;;;;;33.45;17.33;;;13.80;99.90;;;;;;5011255;28;20072;-68
2021/09/13 00:44:38;;;;;;;31.00;15.63;;;13.80;99.90;;;;;;4995659;28;20048;-68
2021/09/13 00:47:04;;;;;;;45.20;16.05;;;13.80;99.90;;;;;;5016887;28;20042;-68
2021/09/13 00:49:29;;;;;;;29.05;15.60;;;13.90;99.90;;;;;;5009551;28;20033;-68
2021/09/13 00:51:55;;;;;;;30.70;15.98;;;14.10;99.90;;;;;;5016610;28;20786;-67
2021/09/13 00:54:20;;;;;;;32.90;16.83;;;14.30;99.90;;;;;;5018068;28;20022;-67
2021/09/13 00:56:46;;;;;;;27.88;15.30;;;14.40;99.90;;;;;;5003491;28;20101;-68
2021/09/13 00:59:12;;;;;;;29.40;15.13;;;14.40;99.90;;;;;;5011339;28;20037;-67
2021/09/13 01:01:38;;;;;;;27.13;14.85;;;14.30;99.90;;;;;;5008186;28;20026;-67
2021/09/13 01:04:04;;;;;;;23.38;13.23;;;14.30;99.90;;;;;;5017774;28;20668;-67
2021/09/13 01:06:30;;;;;;;23.67;13.45;;;14.30;99.90;;;;;;5008850;28;20029;-68
2021/09/13 01:08:56;;;;;;;25.92;12.85;;;14.30;99.90;;;;;;4986876;28;20031;-68
2021/09/13 01:11:22;;;;;;;26.65;14.23;;;14.30;99.90;;;;;;5017956;28;20087;-67
2021/09/13 01:13:48;;;;;;;28.55;14.75;;;14.40;99.90;;;;;;5001389;28;20033;-68
2021/09/13 01:16:14;;;;;;;24.52;13.77;;;14.50;99.90;;;;;;5017254;28;20531;-67
2021/09/13 01:18:40;;;;;;;27.55;13.77;;;14.80;99.90;;;;;;5004818;28;20030;-68
2021/09/13 01:21:06;;;;;;;25.33;13.55;;;14.90;99.90;;;;;;5010749;28;20106;-68
2021/09/13 01:23:33;;;;;;;23.10;12.70;;;14.80;99.90;;;;;;5002142;28;20029;-67
2021/09/13 01:25:59;;;;;;;23.00;13.15;;;14.70;99.90;;;;;;5007358;28;20018;-68
2021/09/13 01:28:25;;;;;;;28.65;13.05;;;14.60;99.90;;;;;;5009421;28;20481;-67
2021/09/13 01:30:52;;;;;;;23.15;12.40;;;14.50;99.90;;;;;;5010573;28;20120;-67
2021/09/13 01:33:18;;;;;;;26.13;13.02;;;14.30;99.90;;;;;;5011933;28;20029;-68
2021/09/13 01:35:44;;;;;;;25.73;13.88;;;14.30;99.90;;;;;;5010793;28;20034;-68
2021/09/13 01:38:10;;;;;;;23.90;12.48;;;14.20;99.90;;;;;;4994215;28;20025;-67
2021/09/13 01:40:35;;;;;;;25.80;14.70;;;14.10;99.90;;;;;;5008794;28;20014;-68
2021/09/13 01:43:02;;;;;;;24.77;13.75;;;14.00;99.90;;;;;;5002456;28;20080;-68
2021/09/13 01:45:28;;;;;;;22.13;12.20;;;14.00;99.90;;;;;;5009965;28;20030;-68
2021/09/13 01:47:55;;;;;;;27.17;14.13;;;14.00;99.90;;;;;;5012261;28;20033;-67
2021/09/13 01:50:21;;;;;;;27.13;13.73;;;14.00;99.90;;;;;;5010463;28;20030;-67
2021/09/13 01:52:47;;;;;;;26.27;14.68;;;13.90;99.90;;;;;;5003984;28;20027;-67
2021/09/13 01:55:13;;;;;;;23.90;12.70;;;13.80;99.90;;;;;;5000464;28;20026;-68
2021/09/13 01:57:39;;;;;;;26.92;13.85;;;13.80;99.90;;;;;;5009108;28;20114;-67
2021/09/13 02:00:07;;;;;;;28.05;13.85;;;13.80;99.90;;;;;;5002873;28;20030;-67
2021/09/13 02:02:33;;;;;;;26.33;14.43;;;13.60;99.90;;;;;;4989959;28;20030;-67
2021/09/13 02:04:58;;;;;;;27.40;13.52;;;13.50;99.90;;;;;;5010731;28;20109;-67
2021/09/13 02:07:24;;;;;;;31.50;14.32;;;13.30;99.90;;;;;;5011459;28;20113;-67
2021/09/13 02:09:52;;;;;;;27.02;14.45;;;13.20;99.90;;;;;;5001206;28;20029;-68
2021/09/13 02:12:19;;;;;;;31.50;14.93;;;13.30;99.90;;;;;;5019990;28;20053;-67
2021/09/13 02:14:46;;;;;;;28.98;13.68;;;13.20;99.90;;;;;;4988356;28;20036;-67
2021/09/13 02:17:12;;;;;;;32.38;14.82;;;13.10;99.90;;;;;;5008846;28;20047;-68
2021/09/13 02:19:38;;;;;;;27.38;13.35;;;12.90;99.90;;;;;;5000769;28;20018;-67
2021/09/13 02:22:04;;;;;;;31.73;14.95;;;12.70;99.90;;;;;;5011030;28;20076;-67
2021/09/13 02:24:29;;;;;;;31.23;15.35;;;12.70;99.90;;;;;;4979309;28;20539;-68
2021/09/13 02:26:55;;;;;;;29.90;14.88;;;12.70;99.90;;;;;;5018000;28;20109;-67
2021/09/13 02:29:21;;;;;;;39.65;15.18;;;12.60;99.90;;;;;;4989834;28;20026;-67
2021/09/13 02:31:46;;;;;;;28.90;14.82;;;12.60;99.90;;;;;;4991927;28;20531;-67
2021/09/13 02:34:12;;;;;;;30.02;14.52;;;12.50;99.90;;;;;;5013789;28;20025;-67
2021/09/13 02:36:39;;;;;;;30.27;15.23;;;12.50;99.90;;;;;;5009809;28;20018;-67
2021/09/13 02:39:05;;;;;;;29.50;14.95;;;12.60;99.90;;;;;;5009135;28;20034;-67
2021/09/13 02:41:31;;;;;;;28.95;15.55;;;12.70;99.90;;;;;;4991992;28;20022;-67
2021/09/13 02:43:56;;;;;;;36.28;16.50;;;12.70;99.90;;;;;;5023705;28;20427;-68
2021/09/13 02:46:22;;;;;;;32.85;15.77;;;12.80;99.90;;;;;;5009853;28;20030;-68
2021/09/13 02:48:47;;;;;;;34.20;16.67;;;12.90;99.90;;;;;;5022372;28;20029;-67
2021/09/13 02:51:13;;;;;;;34.13;16.60;;;12.80;99.90;;;;;;5024553;28;20071;-67
2021/09/13 02:53:39;;;;;;;37.72;16.10;;;12.70;99.90;;;;;;4998483;28;20026;-68
2021/09/13 02:56:04;;;;;;;35.97;15.23;;;12.70;99.90;;;;;;5020783;28;20502;-67
2021/09/13 02:58:30;;;;;;;30.65;15.10;;;12.50;99.90;;;;;;4991128;28;20390;-67
2021/09/13 03:00:56;;;;;;;35.75;17.23;;;12.50;99.90;;;;;;5008791;28;20041;-67
2021/09/13 03:03:21;;;;;;;38.38;16.48;;;12.40;99.90;;;;;;5012066;28;20112;-67
2021/09/13 03:05:47;;;;;;;36.03;15.98;;;12.40;99.90;;;;;;5015915;28;20026;-68
2021/09/13 03:08:13;;;;;;;38.42;17.85;;;12.40;99.90;;;;;;4988997;28;20018;-67
2021/09/13 03:10:38;;;;;;;39.13;16.75;;;12.40;99.90;;;;;;5012031;28;20026;-69
2021/09/13 03:13:04;;;;;;;34.78;16.85;;;12.50;99.90;;;;;;5026382;28;20137;-68
2021/09/13 03:15:29;;;;;;;36.10;16.58;;;12.40;99.90;;;;;;5009137;28;20454;-68
2021/09/13 03:17:55;;;;;;;33.65;16.20;;;12.20;99.90;;;;;;4996437;28;20046;-68
2021/09/13 03:20:21;;;;;;;34.42;16.52;;;12.00;99.90;;;;;;5022678;28;20076;-67
2021/09/13 03:22:46;;;;;;;40.33;17.38;;;12.10;99.90;;;;;;5009790;28;20026;-69
2021/09/13 03:25:12;;;;;;;35.80;17.20;;;12.10;99.90;;;;;;5000937;28;20480;-67
2021/09/13 03:27:38;;;;;;;37.20;17.10;;;12.00;99.90;;;;;;4994128;28;20026;-68
2021/09/13 03:30:04;;;;;;;35.88;16.58;;;11.90;99.90;;;;;;5004496;28;20040;-68
2021/09/13 03:32:30;;;;;;;39.47;17.25;;;11.90;99.90;;;;;;5004048;28;20092;-68
2021/09/13 03:34:56;;;;;;;39.88;17.98;;;11.80;99.90;;;;;;5014586;28;20030;-67
2021/09/13 03:37:21;;;;;;;38.22;17.80;;;11.80;99.90;;;;;;5009244;28;20574;-68
2021/09/13 03:39:47;;;;;;;36.92;17.77;;;11.80;99.90;;;;;;5003086;28;20026;-67
2021/09/13 03:42:13;;;;;;;37.72;17.73;;;11.70;99.90;;;;;;4979180;28;20088;-67
2021/09/13 03:44:39;;;;;;;43.28;18.25;;;11.50;99.90;;;;;;5021623;28;20024;-67
2021/09/13 03:47:05;;;;;;;38.30;17.10;;;11.60;99.90;;;;;;4996787;28;20022;-68
2021/09/13 03:49:30;;;;;;;41.83;17.73;;;11.50;99.90;;;;;;5003114;28;20098;-67
2021/09/13 03:51:56;;;;;;;36.60;17.15;;;11.30;99.90;;;;;;5012071;28;20575;-67
2021/09/13 03:54:22;;;;;;;39.20;17.35;;;11.40;99.90;;;;;;4995744;28;20076;-67
2021/09/13 03:56:48;;;;;;;40.10;17.33;;;11.50;99.90;;;;;;5007122;28;20030;-67
2021/09/13 03:59:14;;;;;;;39.75;17.90;;;11.40;99.90;;;;;;5013570;28;20435;-67
2021/09/13 04:01:39;;;;;;;37.30;16.88;;;11.30;99.90;;;;;;5002478;28;20031;-67
2021/09/13 04:04:06;;;;;;;35.83;16.63;;;11.20;99.90;;;;;;5015639;28;20030;-67
2021/09/13 04:11:37;;;;;;;38.85;15.38;;;11.20;99.90;;;;;;5007065;28;20528;-67
2021/09/13 04:14:03;;;;;;;42.42;17.23;;;11.20;99.90;;;;;;4994717;28;20111;-68
2021/09/13 04:16:28;;;;;;;40.03;16.67;;;11.20;99.90;;;;;;4991304;28;20073;-67
2021/09/13 04:18:54;;;;;;;40.03;16.85;;;11.00;99.90;;;;;;5002814;28;20036;-68
2021/09/13 04:21:20;;;;;;;39.88;16.75;;;10.90;99.90;;;;;;5017763;28;20029;-68
2021/09/13 04:23:45;;;;;;;38.75;17.55;;;11.00;99.90;;;;;;5012883;28;20165;-67
2021/09/13 04:26:11;;;;;;;39.92;17.10;;;11.00;99.90;;;;;;5012574;28;20034;-67
2021/09/13 04:28:36;;;;;;;37.97;17.25;;;11.20;99.90;;;;;;4996844;28;20030;-67
2021/09/13 04:31:02;;;;;;;40.05;16.95;;;11.00;99.90;;;;;;5009820;28;20444;-68
2021/09/13 04:33:29;;;;;;;40.33;16.77;;;;;;;;;;5013071;28;20054;-67
2021/09/13 04:35:54;;;;;;;40.83;17.38;;;10.80;99.90;;;;;;5002548;28;20029;-68
2021/09/13 04:38:20;;;;;;;41.05;16.95;;;10.70;99.90;;;;;;4995646;28;20092;-68
2021/09/13 04:40:45;;;;;;;40.72;17.25;;;10.70;99.90;;;;;;4994405;28;20029;-68
2021/09/13 04:43:11;;;;;;;43.50;17.23;;;10.80;99.90;;;;;;5010978;28;20413;-68
2021/09/13 04:45:36;;;;;;;38.33;17.63;;;10.80;99.90;;;;;;5012460;28;20032;-67
2021/09/13 04:48:02;;;;;;;45.78;17.98;;;10.90;99.90;;;;;;5012585;28;20347;-67
2021/09/13 04:50:28;;;;;;;40.25;17.15;;;10.80;99.90;;;;;;5010219;28;20032;-67
2021/09/13 04:52:53;;;;;;;44.35;17.48;;;10.70;99.90;;;;;;5013255;28;20042;-67
2021/09/13 04:55:19;;;;;;;42.92;18.38;;;10.70;99.90;;;;;;5011008;28;20040;-67
2021/09/13 04:57:45;;;;;;;44.92;17.27;;;10.70;99.90;;;;;;5012134;28;20040;-68
2021/09/13 05:00:11;;;;;;;46.00;17.33;;;10.70;99.90;;;;;;5013056;28;20470;-68
2021/09/13 05:02:37;;;;;;;43.20;18.17;;;10.70;99.90;;;;;;5006989;28;20022;-67
2021/09/13 05:05:02;;;;;;;38.13;17.08;;;10.60;99.90;;;;;;5015303;28;20030;-67
2021/09/13 05:07:28;;;;;;;43.45;17.98;;;10.70;99.90;;;;;;4988969;28;20038;-67
2021/09/13 05:09:53;;;;;;;41.78;18.00;;;10.80;99.90;;;;;;4995582;28;20026;-68
2021/09/13 05:12:19;;;;;;;44.92;18.83;;;10.80;99.90;;;;;;4999636;28;20477;-67
2021/09/13 05:14:45;;;;;;;39.22;17.67;;;11.00;99.90;;;;;;4976317;28;20039;-67
2021/09/13 05:17:10;;;;;;;46.17;18.55;;;11.10;99.90;;;;;;4992622;28;20030;-67
2021/09/13 05:19:36;;;;;;;41.45;18.65;;;11.20;99.90;;;;;;4984335;28;20026;-68
2021/09/13 05:22:02;;;;;;;36.83;17.17;;;11.20;99.90;;;;;;5001528;28;20032;-67
2021/09/13 05:24:27;;;;;;;43.28;18.23;;;11.10;99.90;;;;;;5008221;28;20472;-67
2021/09/13 05:26:53;;;;;;;39.55;17.45;;;11.00;99.90;;;;;;5004907;28;20049;-67
2021/09/13 05:29:19;;;;;;;41.60;17.75;;;11.00;99.90;;;;;;4986926;28;20026;-67
2021/09/13 05:31:44;;;;;;;48.83;19.35;;;11.00;99.90;;;;;;5008691;28;20057;-67
2021/09/13 05:34:10;;;;;;;44.28;17.17;;;11.30;99.90;;;;;;5001410;28;20034;-68
2021/09/13 05:36:35;;;;;;;37.42;18.20;;;11.30;99.90;;;;;;5001029;28;20041;-67
2021/09/13 05:39:01;;;;;;;48.80;18.13;;;11.30;99.90;;;;;;5007017;28;20121;-68
2021/09/13 05:41:27;;;;;;;47.72;18.50;;;11.30;99.90;;;;;;5004162;28;20048;-68
2021/09/13 05:43:52;;;;;;;42.70;18.35;;;11.40;99.90;;;;;;4985436;28;20080;-68
2021/09/13 05:46:18;;;;;;;47.40;18.58;;;11.40;99.90;;;;;;4990615;28;20026;-67
2021/09/13 05:48:44;;;;;;;43.70;18.67;;;11.40;99.90;;;;;;5009025;28;20065;-68
2021/09/13 05:51:09;;;;;;;43.50;18.15;;;11.50;99.90;;;;;;4994629;28;20026;-68
2021/09/13 05:53:35;;;;;;;42.47;18.23;;;11.40;99.90;;;;;;4986652;28;20112;-68
2021/09/13 05:56:00;;;;;;;40.70;17.02;;;11.50;99.90;;;;;;5011490;28;20088;-68
2021/09/13 05:58:26;;;;;;;37.63;17.38;;;11.40;99.90;;;;;;5006483;28;20112;-68
2021/09/13 06:00:52;;;;;;;45.83;17.77;;;11.40;99.90;;;;;;4993678;28;20445;-67
2021/09/13 06:03:17;;;;;;;45.03;18.77;;;11.50;99.90;;;;;;4993958;28;20025;-67
2021/09/13 06:05:43;;;;;;;40.05;17.48;;;11.60;99.90;;;;;;5005940;28;20073;-67
2021/09/13 06:08:08;;;;;;;38.08;17.60;;;11.90;99.90;;;;;;5004252;28;20025;-68
2021/09/13 06:10:34;;;;;;;39.67;18.10;;;12.00;99.90;;;;;;4992810;28;20034;-68
2021/09/13 06:13:00;;;;;;;47.20;17.90;;;12.30;99.90;;;;;;5001302;28;20465;-67
2021/09/13 06:15:25;;;;;;;44.58;18.85;;;12.20;99.90;;;;;;4996304;28;20463;-68
2021/09/13 06:17:51;;;;;;;44.42;19.20;;;12.40;99.90;;;;;;5000346;28;20038;-68
2021/09/13 06:20:17;;;;;;;43.05;18.92;;;12.60;99.90;;;;;;5003638;28;20010;-68
2021/09/13 06:22:42;;;;;;;43.55;19.40;;;12.60;99.90;;;;;;5002333;28;20088;-68
2021/09/13 06:25:08;;;;;;;42.10;18.77;;;12.90;99.90;;;;;;5015894;28;20149;-68
2021/09/13 06:27:34;;;;;;;44.95;18.77;;;13.00;99.90;;;;;;4997593;28;20037;-68
2021/09/13 06:29:59;;;;;;;39.42;19.80;;;13.20;99.90;;;;;;5010700;28;20425;-68
2021/09/13 06:32:25;;;;;;;46.22;17.88;;;13.30;99.90;;;;;;5000464;28;20073;-67
2021/09/13 06:34:51;;;;;;;41.58;17.23;;;13.40;99.90;;;;;;5005079;28;20044;-67
2021/09/13 06:37:21;;;;;;;38.10;17.38;;;13.70;99.90;;;;;;5010585;28;20030;-68
2021/09/13 06:39:47;;;;;;;31.88;17.23;;;13.90;99.90;;;;;;5008838;28;20168;-68
2021/09/13 06:42:13;;;;;;;32.90;16.85;;;14.10;99.90;;;;;;5012732;28;20109;-68
2021/09/13 06:44:39;;;;;;;31.65;16.05;;;14.10;99.90;;;;;;5010357;28;20120;-68
2021/09/13 06:47:09;;;;;;;34.13;16.55;;;14.20;99.90;;;;;;5009582;28;20018;-68
2021/09/13 06:49:35;;;;;;;;;;;14.20;99.90;;;;;;5009397;28;20018;-69
2021/09/13 06:52:03;;;;;;;32.85;15.95;;;14.30;99.90;;;;;;5009054;28;20004;-68
2021/09/13 06:54:28;;;;;;;32.15;15.18;;;14.50;99.90;;;;;;5008352;28;20037;-68
2021/09/13 06:56:56;;;;;;;32.33;16.52;;;14.70;99.90;;;;;;4992299;28;20064;-68
2021/09/13 06:59:22;;;;;;;32.80;16.13;;;14.80;99.90;;;;;;5008149;28;20050;-68
2021/09/13 07:01:48;;;;;;;23.90;13.45;;;14.90;99.90;;;;;;5009974;28;20061;-68
2021/09/13 07:04:14;;;;;;;26.23;12.73;;;14.90;99.90;;;;;;4990271;28;20414;-68
2021/09/13 07:06:39;;;;;;;24.80;13.73;;;14.90;99.90;;;;;;5009771;28;20101;-68
2021/09/13 07:09:05;;;;;;;24.02;12.32;;;15.00;99.90;;;;;;5009439;28;20026;-68
2021/09/13 07:11:31;;;;;;;28.70;11.95;;;15.00;99.90;;;;;;5007534;28;20414;-68
2021/09/13 07:13:56;;;;;;;21.10;10.82;;;15.20;99.90;;;;;;5007397;28;20109;-68
2021/09/13 07:16:22;;;;;;;24.40;10.93;;;15.30;99.90;;;;;;4992278;28;20044;-67
2021/09/13 07:18:48;;;;;;;21.92;9.13;;;15.40;99.90;;;;;;5008045;28;20504;-68
2021/09/13 07:21:14;;;;;;;16.05;8.48;;;15.40;99.90;;;;;;5004700;28;20076;-67
2021/09/13 07:23:40;;;;;;;21.08;9.60;;;15.40;99.90;;;;;;4987293;28;20010;-68
2021/09/13 07:26:06;;;;;;;19.05;9.43;;;15.50;99.90;;;;;;5008422;28;20373;-67
2021/09/13 07:28:32;;;;;;;26.02;10.43;;;15.60;99.90;;;;;;5001778;28;20075;-68
2021/09/13 07:30:58;;;;;;;24.33;10.75;;;15.80;99.90;;;;;;5004680;28;20493;-67
2021/09/13 07:33:24;;;;;;;21.02;9.80;;;15.80;99.90;;;;;;5007909;28;20018;-67
2021/09/13 07:35:50;;;;;;;19.15;9.80;;;15.90;99.90;;;;;;5009564;28;20097;-67
2021/09/13 07:38:15;;;;;;;20.83;9.77;;;15.90;99.90;;;;;;5010956;28;20033;-67
2021/09/13 07:40:42;;;;;;;18.48;8.38;;;16.00;99.90;;;;;;4987963;28;20021;-68
2021/09/13 07:43:09;;;;;;;17.52;7.80;;;16.00;99.90;;;;;;5011056;28;20025;-68
2021/09/13 07:45:35;;;;;;;17.83;7.53;;;16.00;99.90;;;;;;5010866;28;20065;-68
2021/09/13 07:48:01;;;;;;;17.52;9.02;;;16.00;99.90;;;;;;4992989;28;20038;-68
2021/09/13 07:50:27;;;;;;;15.30;6.65;;;16.10;99.90;;;;;;5021747;28;20052;-67
2021/09/13 07:52:52;;;;;;;16.45;6.88;;;16.30;99.90;;;;;;5018328;28;20060;-67
2021/09/13 07:55:18;;;;;;;17.80;6.40;;;16.40;99.90;;;;;;4998996;28;20051;-68
2021/09/13 07:57:44;;;;;;;18.85;6.75;;;16.50;99.90;;;;;;5012176;28;20040;-68
2021/09/13 08:00:10;;;;;;;18.58;6.20;;;16.70;99.90;;;;;;5002670;28;20049;-69
2021/09/13 08:02:36;;;;;;;12.43;5.93;;;16.80;99.90;;;;;;5013035;28;20010;-68
2021/09/13 08:05:02;;;;;;;13.45;6.05;;;16.70;99.90;;;;;;5003171;28;20086;-68
2021/09/13 08:07:27;;;;;;;20.95;7.47;;;16.90;99.90;;;;;;4992401;28;20019;-68
2021/09/13 08:09:53;;;;;;;17.38;7.40;;;17.00;99.90;;;;;;4984262;28;20025;-67
2021/09/13 08:12:19;;;;;;;19.30;7.93;;;17.20;99.90;;;;;;5008257;28;20713;-68
2021/09/13 08:14:44;;;;;;;17.30;8.25;;;17.10;99.90;;;;;;5003074;28;20129;-67
2021/09/13 08:17:10;;;;;;;18.92;8.13;;;17.30;99.90;;;;;;5007064;28;20033;-69
2021/09/13 08:19:39;;;;;;;18.45;8.93;;;17.50;99.90;;;;;;5005148;28;20026;-68
2021/09/13 08:22:06;;;;;;;19.50;9.25;;;17.80;99.90;;;;;;5005285;28;20029;-68
2021/09/13 08:24:31;;;;;;;17.10;7.65;;;18.00;99.90;;;;;;5005354;28;20116;-68
2021/09/13 08:26:57;;;;;;;20.67;7.55;;;18.50;99.90;;;;;;5005931;28;20050;-68
2021/09/13 08:29:23;;;;;;;15.18;7.00;;;19.30;99.90;;;;;;4987327;28;20113;-68
2021/09/13 08:31:49;;;;;;;23.73;6.97;;;19.90;99.90;;;;;;5004441;28;20050;-68
2021/09/13 08:34:17;;;;;;;16.90;7.30;;;20.70;99.90;;;;;;4985270;28;20128;-68
2021/09/13 08:36:43;;;;;;;17.35;7.90;;;21.00;99.90;;;;;;5004275;28;20099;-68
2021/09/13 08:39:10;;;;;;;14.60;7.57;;;21.20;99.90;;;;;;5001852;28;20026;-69
2021/09/13 08:41:36;;;;;;;15.43;7.38;;;21.40;99.90;;;;;;5005067;28;20076;-68
2021/09/13 08:44:02;;;;;;;15.18;7.28;;;21.80;99.90;;;;;;5005306;28;20026;-68
2021/09/13 08:46:44;;;;;;;17.35;8.90;;;22.40;99.90;;;;;;4987280;28;20564;-68
2021/09/13 08:49:26;;;;;;;13.82;6.90;;;23.10;99.90;;;;;;4993878;28;20027;-68
2021/09/13 08:51:52;;;;;;;13.48;6.70;;;23.90;99.90;;;;;;4988546;28;20040;-69
2021/09/13 08:54:18;;;;;;;11.32;6.57;;;23.90;99.90;;;;;;5000681;28;20022;-69
2021/09/13 08:56:46;;;;;;;14.48;6.90;;;23.90;99.90;;;;;;4994168;28;20030;-69
2021/09/13 08:59:16;;;;;;;15.65;6.80;;;24.30;99.90;;;;;;5005993;28;20030;-69
2021/09/13 09:01:43;;;;;;;14.13;6.40;;;23.60;99.90;;;;;;4989010;28;20113;-68
2021/09/13 09:04:11;;;;;;;11.65;5.18;;;23.80;99.90;;;;;;5013023;28;20088;-68
2021/09/13 09:06:43;;;;;;;11.05;4.88;;;24.30;99.90;;;;;;5011627;28;20512;-69
2021/09/13 09:09:13;;;;;;;11.73;6.50;;;24.90;98.90;;;;;;5003751;28;20551;-68
2021/09/13 09:11:57;;;;;;;14.73;5.95;;;24.20;97.70;;;;;;5021006;28;20113;-68
2021/09/13 09:14:31;;;;;;;11.80;5.32;;;24.20;99.40;;;;;;4990573;28;20034;-68
2021/09/13 09:17:03;;;;;;;11.32;5.47;;;25.10;99.00;;;;;;5006924;28;20045;-69
2021/09/13 09:19:29;;;;;;;16.25;5.82;;;25.10;97.10;;;;;;4993411;28;20037;-69
2021/09/13 09:21:55;;;;;;;12.85;6.05;;;24.80;96.90;;;;;;4993232;28;20470;-69
2021/09/13 09:24:21;;;;;;;13.23;5.70;;;23.00;99.90;;;;;;5009730;28;20033;-68
2021/09/13 09:27:05;;;;;;;10.93;5.78;;;22.70;99.90;;;;;;5009803;28;20033;-68
2021/09/13 09:29:33;;;;;;;11.65;5.25;;;22.70;99.90;;;;;;5013846;28;20156;-68
2021/09/13 09:32:01;;;;;;;11.35;5.10;;;23.40;99.90;;;;;;4967687;28;1125733;-68
2021/09/13 09:34:33;;;;;;;11.55;4.60;;;23.90;99.10;;;;;;5011231;28;20033;-68
2021/09/13 09:36:59;;;;;;;11.93;4.50;;;24.70;98.00;;;;;;5011045;28;20060;-69
2021/09/13 09:40:04;;;;;;;10.35;5.10;;;25.60;96.60;;;;;;5009300;28;20057;-68
2021/09/13 09:42:34;;;;;;;10.82;4.65;;;25.70;94.10;;;;;;5023059;28;20121;-68
2021/09/13 09:45:21;;;;;;;10.50;4.15;;;24.90;95.80;;;;;;4992523;28;20037;-68
2021/09/13 09:48:07;;;;;;;9.85;4.15;;;24.80;96.90;;;;;;5000395;28;20103;-68
2021/09/13 09:50:33;;;;;;;8.23;4.03;;;24.20;96.80;;;;;;5013824;28;20041;-68
2021/09/13 09:53:17;;;;;;;11.00;4.88;;;23.70;96.90;;;;;;4987454;28;20023;-68
2021/09/13 09:55:43;;;;;;;11.05;4.32;;;24.00;97.80;;;;;;5008854;28;20540;-69
2021/09/13 09:58:11;;;;;;;10.23;4.40;;;24.90;95.80;;;;;;5010053;28;20030;-68
2021/09/13 10:00:38;;;;;;;10.32;3.92;;;24.70;95.50;;;;;;5009771;28;20144;-69
2021/09/13 10:03:06;;;;;;;8.55;3.10;;;25.40;95.70;;;;;;4989651;28;20029;-68
2021/09/13 10:05:33;;;;;;;7.32;3.00;;;25.00;94.10;;;;;;5004883;28;20112;-68
2021/09/13 10:07:59;;;;;;;6.78;2.80;;;25.20;94.20;;;;;;5006642;28;20034;-68
2021/09/13 10:10:31;;;;;;;8.65;2.50;;;25.30;91.50;;;;;;5010217;28;20501;-68
2021/09/13 10:12:58;;;;;;;8.60;2.42;;;26.00;90.90;;;;;;5011179;28;20037;-68
2021/09/13 10:15:24;;;;;;;11.13;3.03;;;26.30;91.50;;;;;;5011658;28;20021;-69
2021/09/13 10:17:51;;;;;;;8.57;2.80;;;25.80;91.10;;;;;;5007502;28;20201;-68
2021/09/13 10:20:17;;;;;;;7.40;2.78;;;25.40;93.90;;;;;;5008572;28;20041;-68
2021/09/13 10:22:45;;;;;;;8.02;3.10;;;25.40;93.00;;;;;;5009489;28;20068;-69
2021/09/13 10:25:11;;;;;;;8.25;3.47;;;24.70;92.60;;;;;;4990879;28;20052;-69
2021/09/13 10:27:46;;;;;;;7.80;2.88;;;24.70;94.00;;;;;;5008597;28;20026;-68
2021/09/13 10:30:24;;;;;;;8.57;2.70;;;25.70;92.90;;;;;;4991306;28;20030;-68
2021/09/13 10:32:51;;;;;;;7.72;3.70;;;25.70;92.90;;;;;;5009154;28;20048;-69
2021/09/13 10:35:20;;;;;;;9.23;3.22;;;25.40;92.30;;;;;;5010573;28;20049;-68
2021/09/13 10:37:51;;;;;;;6.95;2.70;;;24.90;93.70;;;;;;5001790;28;20034;-69
2021/09/13 10:40:21;;;;;;;8.88;3.00;;;25.40;93.50;;;;;;5006207;28;20029;-68
2021/09/13 10:42:49;;;;;;;7.78;3.20;;;26.40;91.30;;;;;;5010600;28;20113;-69
2021/09/13 10:45:16;;;;;;;7.13;2.75;;;26.50;91.10;;;;;;5009171;28;20523;-68
2021/09/13 10:47:45;;;;;;;8.23;3.05;;;26.50;90.40;;;;;;5008310;28;20133;-68
2021/09/13 10:50:32;;;;;;;8.43;2.80;;;26.50;91.50;;;;;;4998926;28;20030;-68
2021/09/13 10:52:58;;;;;;;8.88;2.58;;;26.50;92.20;;;;;;5008432;28;20296;-68
2021/09/13 10:55:26;;;;;;;7.40;2.80;;;26.60;90.20;;;;;;5010190;28;20026;-68
2021/09/13 10:57:56;;;;;;;8.00;2.80;;;26.80;91.10;;;;;;4988304;28;20022;-68
2021/09/13 11:00:37;;;;;;;8.68;3.28;;;26.50;89.90;;;;;;5007935;28;20022;-69
2021/09/13 11:03:22;;;;;;;11.73;3.30;;;26.90;91.00;;;;;;5008003;28;20500;-69
2021/09/13 11:06:07;;;;;;;6.75;2.97;;;26.20;90.50;;;;;;4996640;28;20042;-68
2021/09/13 11:08:55;;;;;;;6.82;3.13;;;25.80;91.40;;;;;;5009932;28;20511;-68
2021/09/13 11:11:26;;;;;;;12.15;3.95;;;26.20;91.60;;;;;;4975582;28;20035;-69
2021/09/13 11:14:08;;;;;;;11.50;3.60;;;26.30;90.50;;;;;;5015561;28;20076;-69
2021/09/13 11:16:37;;;;;;;8.52;3.03;;;26.50;89.80;;;;;;4990894;28;20061;-69
2021/09/13 11:19:08;;;;;;;9.83;3.67;;;25.60;90.70;;;;;;5009028;28;20419;-68
2021/09/13 11:21:35;;;;;;;11.20;3.70;;;24.90;90.90;;;;;;4992956;28;20040;-68
2021/09/13 11:24:15;;;;;;;9.45;3.97;;;25.70;91.20;;;;;;5005934;28;20053;-68
2021/09/13 11:26:47;;;;;;;13.23;4.00;;;26.10;91.20;;;;;;4991614;28;20025;-68
2021/09/13 11:29:27;;;;;;;8.38;3.67;;;25.40;90.40;;;;;;5008457;28;20030;-68
2021/09/13 11:32:08;;;;;;;9.55;3.20;;;26.00;90.20;;;;;;5005197;28;20484;-68
2021/09/13 11:34:45;;;;;;;8.70;3.50;;;27.40;88.90;;;;;;5006331;28;20025;-69
2021/09/13 11:37:19;;;;;;;6.05;2.50;;;27.60;86.40;;;;;;5008749;28;20022;-68
2021/09/13 11:39:50;;;;;;;10.48;3.72;;;27.90;87.40;;;;;;5009258;28;20054;-69
2021/09/13 11:42:20;;;;;;;9.07;3.90;;;28.30;86.10;;;;;;5007164;28;20049;-68
2021/09/13 11:44:48;;;;;;;8.43;3.38;;;28.10;87.00;;;;;;4979935;28;20037;-68
2021/09/13 11:47:16;;;;;;;10.13;3.67;;;27.80;84.50;;;;;;5010016;28;20069;-68
2021/09/13 11:49:44;;;;;;;8.65;3.60;;;27.40;82.40;;;;;;5008333;28;20109;-68
2021/09/13 11:52:11;;;;;;;10.57;3.67;;;27.50;85.40;;;;;;5007185;28;20033;-68
2021/09/13 11:54:52;;;;;;;10.80;3.60;;;26.60;85.90;;;;;;5022793;28;20018;-68
2021/09/13 11:57:21;;;;;;;8.75;2.92;;;26.60;89.20;;;;;;4990960;28;20034;-68
2021/09/13 11:59:52;;;;;;;10.13;3.80;;;26.10;85.60;;;;;;5004190;28;20039;-68
2021/09/13 12:02:18;;;;;;;8.57;3.47;;;25.70;87.60;;;;;;5001642;28;20038;-68
2021/09/13 12:04:43;;;;;;;8.60;3.30;;;25.20;89.30;;;;;;5005541;28;20381;-68
2021/09/13 12:07:13;;;;;;;7.97;3.55;;;24.70;90.50;;;;;;5006146;28;20036;-67
2021/09/13 12:09:41;;;;;;;8.30;3.30;;;24.40;91.90;;;;;;4999787;28;20073;-68
2021/09/13 12:12:07;;;;;;;8.80;3.47;;;25.10;90.30;;;;;;5000946;28;20069;-68
2021/09/13 12:14:35;;;;;;;9.57;3.45;;;24.60;90.80;;;;;;5005865;28;20029;-67
2021/09/13 12:17:14;;;;;;;8.15;3.35;;;24.40;90.50;;;;;;5004739;28;20036;-68
2021/09/13 12:20:10;;;;;;;9.55;3.80;;;23.90;90.30;;;;;;5004077;28;20034;-68
2021/09/13 12:22:36;;;;;;;8.95;3.60;;;24.30;91.50;;;;;;4996709;28;20037;-68
2021/09/13 12:25:10;;;;;;;8.80;3.40;;;24.30;91.10;;;;;;4998488;28;20034;-68
2021/09/13 12:27:41;;;;;;;6.90;2.95;;;24.30;91.60;;;;;;4990585;28;20041;-69
2021/09/13 12:30:13;;;;;;;7.28;2.67;;;24.10;93.10;;;;;;5000768;28;20026;-68
2021/09/13 12:32:38;;;;;;;8.18;3.40;;;24.10;92.60;;;;;;4994508;28;20042;-68
2021/09/13 12:35:07;;;;;;;7.20;2.80;;;23.90;92.20;;;;;;5017606;28;20034;-68
2021/09/13 12:37:38;;;;;;;7.68;3.75;;;24.20;91.20;;;;;;5007154;28;20414;-68
2021/09/13 12:40:16;;;;;;;8.95;3.05;;;23.60;92.10;;;;;;5008166;28;20025;-68